MAPA DE AEROPUERTO

INFORMACIÓN METAR y TAF

METAR FOR EDDP
ADDS - METARS form results

(2328 UTC 31 March 2020)
Data provider http://aviationweather.gov/metar/data/
 
METAR text: EDDP 312320Z 19005KT CAVOK M02/M08 Q1026 NOSIG
Conditions at: EDDP (LEIPZIG/SCHKEUDI, DE) observed 2320 UTC 31 March 2020
Temperature: -2.0°C (28°F)
Dewpoint: -8.0°C (18°F) [RH = 63%]
Pressure (altimeter): 30.30 inches Hg (1026.0 mb)
Winds: from the S (190 degrees) at 6 MPH (5 knots; 2.6 m/s)
Visibility: 6 or more miles (10+ km)
Ceiling: ceiling and visibility are OK
Clouds: unknown
Weather: no significant weather observed at this time

METAR text: EDDP 312250Z 14004KT CAVOK M01/M09 Q1026 NOSIG
Conditions at: EDDP (LEIPZIG/SCHKEUDI, DE) observed 2250 UTC 31 March 2020
Temperature: -1.0°C (30°F)
Dewpoint: -9.0°C (16°F) [RH = 55%]
Pressure (altimeter): 30.30 inches Hg (1026.0 mb)
Winds: from the SE (140 degrees) at 5 MPH (4 knots; 2.1 m/s)
Visibility: 6 or more miles (10+ km)
Ceiling: ceiling and visibility are OK
Clouds: unknown
Weather: no significant weather observed at this time

Forecast for: EDDP (LEIPZIG/SCHKEUDI, DE)
Text: TAF EDDP 312300Z 0100/0124 21005KT CAVOK
Forecast period: 0000 to 0600 UTC 01 April 2020
Forecast type: FROM: standard forecast or significant change
Winds: from the SSW (210 degrees) at 6 MPH (5 knots; 2.6 m/s)
Visibility: 6 or more miles 10+ km)
Ceiling: unknown
Clouds: missing
Weather: NSW  (no significant weather)
Text: BECMG 0106/0108 27006KT
Forecast period: 0600 to 1700 UTC 01 April 2020
Forecast type: BECOMING: Conditions expected to become as follows by 0800 UTC 01 April 2020
Winds: from the W (270 degrees) at 7 MPH (6 knots; 3.1 m/s)
Visibility: 6 or more miles 10+ km)
Ceiling: unknown
Clouds: missing
Weather: NSW  (no significant weather)
Text: BECMG 0117/0119 21005KT
Forecast period: 1700 UTC 01 April 2020 to 0000 UTC 02 April 2020
Forecast type: BECOMING: Conditions expected to become as follows by 1900 UTC 01 April 2020
Winds: from the SSW (210 degrees) at 6 MPH (5 knots; 2.6 m/s)
Visibility: 6 or more miles 10+ km)
Ceiling: unknown
Clouds: missing
Weather: NSW  (no significant weather)